Time;durP1;ratioP1;P1;durP2;ratioP2;P2;SDS_P1;SDS_P2;PMS_P1;PMS_P2;Temp;Humidity;BMP_temperature;BMP_pressure;BME280_temperature;BME280_humidity;BME280_pressure;Samples;Min_cycle;Max_cycle;Signal;HPM_P1;HPM_P2
2023/07/01 00:00:06;;;;;;;5.97;2.53;;;;;;;17.90;54.50;100589.81;5047998;28;20034;-80
2023/07/01 00:02:31;;;;;;;7.38;2.60;;;;;;;17.86;53.65;100592.22;5044889;28;20056;-81
2023/07/01 00:04:59;;;;;;;7.85;2.90;;;;;;;17.87;54.04;100582.97;5045117;28;20032;-80
2023/07/01 00:07:24;;;;;;;4.00;2.40;;;;;;;17.89;53.77;100575.38;5046950;28;20105;-79
2023/07/01 00:09:50;;;;;;;5.93;2.45;;;;;;;17.86;54.43;100575.88;5046914;28;20418;-80
2023/07/01 00:12:15;;;;;;;5.32;2.28;;;;;;;17.88;54.56;100568.28;5048021;28;20036;-80
2023/07/01 00:14:47;;;;;;;4.90;2.40;;;;;;;17.94;54.64;100563.72;5048277;28;20029;-80
2023/07/01 00:17:12;;;;;;;4.50;2.20;;;;;;;17.92;54.63;100555.81;5044915;28;20069;-80
2023/07/01 00:19:38;;;;;;;6.43;2.40;;;;;;;17.89;55.32;100559.03;5061857;28;20037;-80
2023/07/01 00:22:04;;;;;;;6.70;2.38;;;;;;;17.85;55.75;100557.88;5047192;28;20021;-80
2023/07/01 00:24:29;;;;;;;7.90;2.70;;;;;;;17.86;56.00;100554.09;5048075;28;20024;-80
2023/07/01 00:26:55;;;;;;;4.43;2.40;;;;;;;17.84;56.39;100548.06;5047606;28;20024;-80
2023/07/01 00:29:20;;;;;;;5.28;2.33;;;;;;;17.73;57.00;100545.22;5045785;28;20063;-80
2023/07/01 00:31:46;;;;;;;5.90;2.70;;;;;;;17.82;57.17;100542.06;5054314;28;20037;-81
2023/07/01 00:34:12;;;;;;;5.25;2.95;;;;;;;17.80;57.82;100536.06;5047202;28;20372;-80
2023/07/01 00:36:37;;;;;;;6.00;2.90;;;;;;;17.74;58.30;100546.03;5048186;28;20027;-80
2023/07/01 00:39:03;;;;;;;5.57;2.80;;;;;;;17.76;58.65;100537.63;5047968;28;20028;-80
2023/07/01 00:41:29;;;;;;;8.27;2.63;;;;;;;17.71;59.14;100536.47;5048076;27;20016;-80
2023/07/01 00:43:54;;;;;;;8.88;3.00;;;;;;;17.71;59.54;100539.22;5048185;28;20524;-79
2023/07/01 00:46:21;;;;;;;4.97;2.95;;;;;;;17.70;59.91;100526.66;5063337;28;20033;-80
2023/07/01 00:48:47;;;;;;;6.30;3.15;;;;;;;17.66;60.76;100522.00;5034964;28;20033;-80
2023/07/01 00:51:12;;;;;;;6.88;3.10;;;;;;;17.61;61.04;100516.47;5030791;28;20028;-80
2023/07/01 00:53:39;;;;;;;7.95;3.13;;;;;;;17.62;61.54;100518.97;5046407;28;20029;-80
2023/07/01 00:56:05;;;;;;;5.00;3.13;;;;;;;17.59;61.64;100522.19;5046706;28;20349;-80
2023/07/01 00:58:30;;;;;;;14.18;3.28;;;;;;;17.55;61.90;100519.16;5045900;28;20150;-80
2023/07/01 01:00:57;;;;;;;5.30;3.10;;;;;;;17.56;61.79;100504.44;5062636;28;20033;-80
2023/07/01 01:03:28;;;;;;;6.18;3.20;;;;;;;17.51;61.86;100501.66;5012556;28;20053;-80
2023/07/01 01:06:04;;;;;;;4.63;2.90;;;;;;;17.55;61.71;100504.69;5023713;28;20498;-80
2023/07/01 01:08:41;;;;;;;;;;;;;;;17.53;61.74;100502.25;5044983;28;20074;-80
2023/07/01 01:11:06;;;;;;;4.60;3.20;;;;;;;17.46;61.67;100495.34;5036126;28;19965;-80
2023/07/01 01:13:32;;;;;;;5.85;3.47;;;;;;;17.47;61.26;100491.53;5029576;28;20037;-80
2023/07/01 01:15:57;;;;;;;5.15;3.15;;;;;;;17.45;61.13;100485.53;5050336;28;20471;-80
2023/07/01 01:18:23;;;;;;;6.57;3.15;;;;;;;17.45;60.72;100485.53;5026830;28;20121;-81
2023/07/01 01:20:51;;;;;;;6.35;3.10;;;;;;;17.43;60.50;100481.16;5045997;28;20387;-80
2023/07/01 01:23:24;;;;;;;7.07;3.17;;;;;;;17.43;59.33;100473.00;5027871;28;20053;-81
2023/07/01 01:26:19;;;;;;;4.55;2.72;;;;;;;17.47;59.46;100480.66;5044696;28;20724;-80
2023/07/01 01:28:46;;;;;;;7.95;3.10;;;;;;;17.48;59.01;100476.84;5036529;28;20377;-80
2023/07/01 01:31:11;;;;;;;6.78;2.80;;;;;;;17.44;59.08;100471.09;5054118;27;20021;-79
2023/07/01 01:33:40;;;;;;;6.00;2.80;;;;;;;17.40;59.47;100462.59;5044504;28;20374;-80
2023/07/01 01:36:23;;;;;;;5.50;2.88;;;;;;;17.43;58.31;100451.22;5045340;28;20027;-80
2023/07/01 01:38:49;;;;;;;6.75;2.80;;;;;;;17.42;58.51;100451.47;5043793;28;20029;-80
2023/07/01 01:41:27;;;;;;;6.50;2.85;;;;;;;17.46;57.80;100440.91;5022079;28;20021;-79
2023/07/01 01:44:01;;;;;;;4.22;2.85;;;;;;;17.44;57.72;100438.44;5012327;28;20037;-80
2023/07/01 01:46:27;;;;;;;6.95;2.90;;;;;;;17.41;57.54;100444.38;5010449;28;20045;-80
2023/07/01 01:48:54;;;;;;;4.00;2.78;;;;;;;17.47;57.25;100437.13;5033769;28;20040;-79
2023/07/01 01:51:19;;;;;;;5.35;2.45;;;;;;;17.42;57.10;100435.13;5012988;28;20033;-80
2023/07/01 01:53:44;;;;;;;4.40;3.17;;;;;;;17.45;56.70;100428.38;5018012;28;20096;-80
2023/07/01 01:56:10;;;;;;;6.32;2.85;;;;;;;17.48;56.69;100423.25;5008297;28;20056;-81
2023/07/01 01:58:35;;;;;;;4.75;2.70;;;;;;;17.39;56.67;100425.59;5043147;28;20029;-80
2023/07/01 02:01:01;;;;;;;3.83;2.72;;;;;;;17.41;56.60;100418.00;5010415;28;20031;-80
2023/07/01 02:03:26;;;;;;;6.13;2.75;;;;;;;17.41;56.37;100412.56;5035156;28;20089;-80
2023/07/01 02:05:51;;;;;;;3.00;2.60;;;;;;;17.46;56.24;100408.25;5047454;27;20118;-80
2023/07/01 02:08:17;;;;;;;4.47;2.60;;;;;;;17.48;55.83;100408.81;5043818;28;20017;-80
2023/07/01 02:10:42;;;;;;;5.55;2.78;;;;;;;17.45;55.75;100401.97;5046334;27;20037;-80
2023/07/01 02:13:08;;;;;;;9.00;2.80;;;;;;;17.48;55.95;100395.19;5051021;28;20460;-79
2023/07/01 02:15:33;;;;;;;5.47;2.53;;;;;;;17.48;55.88;100389.75;5049066;28;20025;-80
2023/07/01 02:17:58;;;;;;;5.43;2.67;;;;;;;17.46;56.03;100384.59;5055598;28;20029;-79
2023/07/01 02:20:24;;;;;;;4.95;2.70;;;;;;;17.43;55.72;100383.19;5062208;28;20028;-79
2023/07/01 02:22:49;;;;;;;5.65;2.63;;;;;;;17.46;55.98;100387.31;5049025;28;20025;-80
2023/07/01 02:25:15;;;;;;;4.22;2.58;;;;;;;17.45;55.76;100373.97;5049830;28;20021;-79
2023/07/01 02:27:40;;;;;;;5.15;2.65;;;;;;;17.45;55.97;100384.84;5051828;27;20452;-79
2023/07/01 02:30:06;;;;;;;8.02;2.22;;;;;;;17.48;55.77;100378.88;5049656;28;20017;-79
2023/07/01 02:32:32;;;;;;;6.63;2.80;;;;;;;17.48;55.75;100385.16;5054783;27;20028;-79
2023/07/01 02:34:57;;;;;;;5.05;2.63;;;;;;;17.48;55.95;100371.53;5070980;28;20085;-81
2023/07/01 02:37:22;;;;;;;2.92;2.30;;;;;;;17.42;56.21;100375.28;5060105;28;20421;-79
2023/07/01 02:39:48;;;;;;;2.58;2.30;;;;;;;17.29;56.67;100379.22;5049462;28;20029;-79
2023/07/01 02:42:16;;;;;;;5.43;2.90;;;;;;;17.38;56.19;100376.88;5048406;28;20036;-79
2023/07/01 02:44:42;;;;;;;4.65;2.45;;;;;;;17.46;56.19;100367.44;5047829;28;20029;-79
2023/07/01 02:47:07;;;;;;;4.93;2.40;;;;;;;17.45;56.00;100363.06;5048166;28;20120;-79
2023/07/01 02:49:33;;;;;;;6.53;2.50;;;;;;;17.49;55.67;100367.75;5048522;28;20025;-79
2023/07/01 02:51:58;;;;;;;4.88;2.30;;;;;;;17.51;55.52;100353.88;5048628;28;20025;-79
2023/07/01 02:54:23;;;;;;;5.15;2.50;;;;;;;17.46;55.17;100351.13;5054429;28;20029;-79
2023/07/01 02:56:49;;;;;;;7.15;2.78;;;;;;;17.52;55.28;100358.25;5049901;27;20026;-79
2023/07/01 02:59:14;;;;;;;4.75;2.50;;;;;;;17.50;55.61;100360.38;5049654;28;20036;-79
2023/07/01 03:01:44;;;;;;;5.50;2.17;;;;;;;17.54;55.70;100346.03;5047391;28;20025;-79
2023/07/01 03:04:09;;;;;;;4.28;2.30;;;;;;;17.54;55.77;100346.03;5047922;28;20040;-79
2023/07/01 03:06:35;;;;;;;6.47;2.45;;;;;;;17.53;56.05;100349.00;5050059;28;20025;-80
2023/07/01 03:09:03;;;;;;;4.45;2.58;;;;;;;17.51;56.11;100338.38;5048436;28;20496;-79
2023/07/01 03:11:29;;;;;;;4.35;2.42;;;;;;;17.47;56.43;100328.28;5045744;28;20036;-79
2023/07/01 03:13:54;;;;;;;4.18;2.47;;;;;;;17.54;56.54;100337.03;5047847;27;20029;-79
2023/07/01 03:16:20;;;;;;;9.45;2.88;;;;;;;17.52;56.82;100326.41;5048628;28;20033;-80
2023/07/01 03:18:46;;;;;;;4.82;2.70;;;;;;;17.41;57.08;100328.22;5047426;28;20036;-80
2023/07/01 03:21:11;;;;;;;5.32;2.65;;;;;;;17.43;57.30;100323.34;5046747;28;20085;-80
2023/07/01 03:23:37;;;;;;;4.60;2.35;;;;;;;17.41;57.60;100330.94;5045551;28;20033;-79
2023/07/01 03:26:02;;;;;;;3.58;2.60;;;;;;;17.43;57.74;100326.06;5046626;28;20073;-79
2023/07/01 03:28:28;;;;;;;6.10;2.60;;;;;;;17.42;57.93;100324.41;5049234;28;20021;-79
2023/07/01 03:30:53;;;;;;;3.92;2.78;;;;;;;17.47;58.07;100323.63;5047038;27;20025;-80
2023/07/01 03:33:18;;;;;;;5.63;2.60;;;;;;;17.48;58.07;100319.00;5044877;28;20029;-79
2023/07/01 03:35:44;;;;;;;4.03;2.65;;;;;;;17.48;58.38;100311.69;5047134;28;20044;-80
2023/07/01 03:38:10;;;;;;;6.32;3.10;;;;;;;17.42;58.57;100316.25;5046678;28;20040;-79
2023/07/01 03:40:35;;;;;;;4.15;2.47;;;;;;;17.43;58.77;100317.06;5044716;28;20085;-79
2023/07/01 03:43:00;;;;;;;4.30;2.83;;;;;;;17.42;59.12;100316.25;5045470;28;20399;-79
2023/07/01 03:45:26;;;;;;;9.13;2.78;;;;;;;17.38;59.20;100306.94;5050238;28;20092;-80
2023/07/01 03:47:51;;;;;;;6.68;2.80;;;;;;;17.36;59.35;100294.69;5046289;28;20033;-79
2023/07/01 03:50:17;;;;;;;3.25;2.50;;;;;;;17.26;59.73;100304.38;5049341;28;20480;-87
2023/07/01 03:52:42;;;;;;;6.07;2.90;;;;;;;17.23;60.25;100301.34;5044338;28;20025;-79
2023/07/01 03:55:08;;;;;;;5.10;2.70;;;;;;;17.29;60.12;100300.34;5046529;28;20031;-79
2023/07/01 03:57:34;;;;;;;5.72;2.90;;;;;;;17.35;60.09;100298.50;5047402;28;20029;-82
2023/07/01 04:00:00;;;;;;;5.97;2.67;;;;;;;17.31;60.26;100303.59;5044975;28;20033;-80
2023/07/01 04:02:38;;;;;;;4.47;2.70;;;;;;;17.28;60.39;100298.69;5047364;28;20043;-81
2023/07/01 04:05:12;;;;;;;6.00;2.88;;;;;;;17.21;60.65;100281.72;5047078;28;20528;-80
2023/07/01 04:07:39;;;;;;;6.50;3.50;;;;;;;17.19;60.67;100273.00;5044700;28;20073;-79
2023/07/01 04:10:05;;;;;;;7.90;3.03;;;;;;;17.23;61.14;100285.03;5047944;28;20029;-80
2023/07/01 04:12:34;;;;;;;6.38;2.50;;;;;;;17.27;61.07;100281.53;5054472;28;20029;-80
2023/07/01 04:15:01;;;;;;;4.35;3.00;;;;;;;17.21;61.15;100277.09;5045315;28;20033;-80
2023/07/01 04:17:28;;;;;;;4.40;2.60;;;;;;;17.28;61.38;100271.50;5048001;28;20033;-80
2023/07/01 04:19:53;;;;;;;4.03;2.60;;;;;;;17.28;61.59;100275.00;5048311;28;20068;-81
2023/07/01 04:22:22;;;;;;;4.43;2.85;;;;;;;17.25;61.79;100272.00;5045716;28;20470;-81
2023/07/01 04:24:48;;;;;;;4.72;3.03;;;;;;;17.27;61.98;100270.66;5046551;28;20487;-80
2023/07/01 04:27:13;;;;;;;5.63;2.70;;;;;;;17.18;62.86;100269.47;5048266;28;20032;-80
2023/07/01 04:29:39;;;;;;;5.78;2.75;;;;;;;17.19;62.92;100273.00;5045586;28;20493;-80
2023/07/01 04:32:04;;;;;;;5.00;2.78;;;;;;;17.16;63.28;100268.91;5046386;28;20568;-80
2023/07/01 04:34:30;;;;;;;6.00;3.00;;;;;;;17.24;62.99;100271.16;5053877;27;20046;-81
2023/07/01 04:36:55;;;;;;;4.35;2.97;;;;;;;17.27;63.18;100267.94;5040894;28;20025;-80
2023/07/01 04:39:22;;;;;;;5.00;2.60;;;;;;;17.23;63.80;100266.78;5049080;28;20033;-80
2023/07/01 04:41:48;;;;;;;5.18;3.10;;;;;;;17.18;63.90;100266.75;5046006;27;20040;-80
2023/07/01 04:44:14;;;;;;;5.60;2.83;;;;;;;17.15;64.46;100266.44;5046022;28;20039;-80
2023/07/01 04:46:39;;;;;;;6.03;2.88;;;;;;;17.15;64.56;100261.81;5046689;28;20034;-81
2023/07/01 04:49:05;;;;;;;7.25;2.78;;;;;;;17.20;64.57;100269.22;5048430;28;20629;-80
2023/07/01 04:51:31;;;;;;;3.78;2.90;;;;;;;17.13;64.84;100264.78;5046308;28;20029;-80
2023/07/01 04:53:56;;;;;;;5.00;2.95;;;;;;;16.98;65.38;100264.63;5047406;28;20025;-80
2023/07/01 04:56:23;;;;;;;8.23;2.88;;;;;;;16.95;65.63;100263.22;5047016;28;20033;-80
2023/07/01 04:58:49;;;;;;;4.03;2.67;;;;;;;16.99;65.60;100260.81;5038764;28;20033;-80
2023/07/01 05:01:15;;;;;;;4.70;2.90;;;;;;;16.97;65.57;100261.09;5048152;28;20115;-80
2023/07/01 05:03:42;;;;;;;4.40;2.80;;;;;;;17.05;65.29;100262.53;5047454;28;20468;-80
2023/07/01 05:06:08;;;;;;;6.18;2.90;;;;;;;17.03;65.54;100253.00;5047868;28;20029;-80
2023/07/01 05:08:33;;;;;;;7.28;3.00;;;;;;;17.04;65.71;100265.50;5049668;28;20425;-80
2023/07/01 05:10:58;;;;;;;3.40;2.60;;;;;;;17.02;66.26;100246.72;5044282;27;20029;-80
2023/07/01 05:13:24;;;;;;;6.85;2.58;;;;;;;17.03;66.10;100253.00;5011114;28;20025;-80
2023/07/01 05:15:49;;;;;;;6.03;2.50;;;;;;;16.86;68.50;100253.84;5042286;28;20029;-80
2023/07/01 05:18:15;;;;;;;3.92;2.28;;;;;;;16.75;70.42;100236.59;5044316;27;20026;-81
2023/07/01 05:20:40;;;;;;;4.97;2.35;;;;;;;16.72;71.26;100247.97;5045916;27;20048;-81
2023/07/01 05:23:05;;;;;;;8.98;2.35;;;;;;;16.49;72.49;100249.88;5046875;28;20521;-80
2023/07/01 05:25:31;;;;;;;6.35;2.28;;;;;;;16.48;72.65;100241.97;5040254;28;20040;-82
2023/07/01 05:27:56;;;;;;;4.00;2.10;;;;;;;16.39;73.24;100221.72;5044576;28;20060;-81
2023/07/01 05:30:22;;;;;;;3.60;2.05;;;;;;;16.48;72.65;100248.22;5044883;28;20028;-81
2023/07/01 05:32:47;;;;;;;3.47;2.10;;;;;;;16.55;72.47;100247.22;5042132;28;20086;-80
2023/07/01 05:35:13;;;;;;;3.08;2.10;;;;;;;16.62;72.21;100248.69;5044338;27;20021;-80
2023/07/01 05:37:41;;;;;;;5.13;2.40;;;;;;;16.67;72.33;100248.75;5044458;27;20029;-80
2023/07/01 05:40:07;;;;;;;3.03;2.15;;;;;;;16.51;73.13;100245.00;5042712;28;20021;-80
2023/07/01 05:42:33;;;;;;;3.85;2.33;;;;;;;16.47;73.19;100246.56;5046402;28;20040;-81
2023/07/01 05:44:58;;;;;;;4.45;2.03;;;;;;;16.47;73.58;100248.47;5045713;28;20388;-80
2023/07/01 05:47:24;;;;;;;2.22;1.90;;;;;;;16.54;73.58;100246.38;5039637;27;20361;-80
2023/07/01 05:49:49;;;;;;;2.47;1.90;;;;;;;16.51;73.57;100252.31;5047476;27;20029;-81
2023/07/01 05:52:14;;;;;;;1.98;1.77;;;;;;;16.42;74.32;100249.22;5042869;28;20535;-80
2023/07/01 05:54:40;;;;;;;2.55;1.75;;;;;;;16.36;76.01;100242.88;5045890;28;20037;-81
2023/07/01 05:57:05;;;;;;;2.50;1.70;;;;;;;16.27;77.03;100246.28;5050440;28;20029;-81
2023/07/01 05:59:31;;;;;;;3.15;1.80;;;;;;;16.23;78.27;100254.13;5043360;28;20040;-81
2023/07/01 06:01:56;;;;;;;2.95;2.10;;;;;;;16.08;79.47;100249.28;5048787;28;20043;-81
2023/07/01 06:04:22;;;;;;;2.50;1.90;;;;;;;16.01;79.80;100246.72;5047343;28;20040;-79
2023/07/01 06:06:47;;;;;;;3.65;2.00;;;;;;;15.84;81.04;100252.16;5046941;28;20032;-79
2023/07/01 06:09:15;;;;;;;2.47;1.88;;;;;;;15.67;82.13;100249.44;5048664;28;20025;-79
2023/07/01 06:11:40;;;;;;;2.35;2.15;;;;;;;15.56;82.98;100253.84;5050874;28;20040;-81
2023/07/01 06:14:05;;;;;;;4.05;1.90;;;;;;;15.44;83.82;100245.78;5052132;28;20116;-83
2023/07/01 06:16:31;;;;;;;3.33;2.10;;;;;;;15.37;84.35;100249.72;5049990;28;20045;-83
2023/07/01 06:18:56;;;;;;;3.53;2.05;;;;;;;15.36;84.62;100238.06;5058811;27;20049;-82
2023/07/01 06:21:22;;;;;;;3.90;2.10;;;;;;;15.33;84.61;100237.72;5037446;28;20194;-83
2023/07/01 06:23:47;;;;;;;2.33;2.00;;;;;;;15.35;85.41;100230.97;5050970;28;20377;-84
2023/07/01 06:26:13;;;;;;;2.95;1.92;;;;;;;15.42;85.03;100237.09;5052912;28;20110;-84
2023/07/01 06:28:38;;;;;;;2.60;1.88;;;;;;;15.49;84.08;100236.09;5050528;28;20029;-83
2023/07/01 06:31:04;;;;;;;2.05;1.95;;;;;;;15.49;84.45;100238.81;5049303;28;20029;-83
2023/07/01 06:33:29;;;;;;;2.17;1.88;;;;;;;15.41;84.73;100218.31;5058414;28;20031;-84
2023/07/01 06:35:54;;;;;;;2.20;2.03;;;;;;;15.38;84.95;100226.94;5055937;28;20041;-85
2023/07/01 06:38:20;;;;;;;2.20;2.00;;;;;;;15.40;85.05;100238.38;5049809;28;20024;-81
2023/07/01 06:40:45;;;;;;;2.13;2.00;;;;;;;15.46;85.18;100232.00;5048533;28;20497;-86
2023/07/01 06:43:11;;;;;;;2.30;2.10;;;;;;;15.44;85.21;100229.50;5048529;28;20357;-84
2023/07/01 06:45:41;;;;;;;2.85;2.30;;;;;;;15.43;85.49;100222.47;5048878;28;20057;-89
2023/07/01 06:48:07;;;;;;;2.33;2.00;;;;;;;15.43;85.56;100238.72;5045308;27;20025;-85
2023/07/01 06:50:34;;;;;;;2.70;2.13;;;;;;;15.43;85.77;100233.31;5048677;27;20029;-83
2023/07/01 06:52:59;;;;;;;2.35;2.15;;;;;;;15.43;86.54;100233.31;5047928;27;20036;-80
2023/07/01 06:55:25;;;;;;;2.53;2.28;;;;;;;15.36;87.32;100234.50;5045555;27;20025;-81
2023/07/01 06:57:50;;;;;;;3.58;2.42;;;;;;;15.34;87.27;100228.53;5046103;28;20544;-82
2023/07/01 07:00:16;;;;;;;3.92;2.45;;;;;;;15.25;87.29;100237.03;5048287;28;20031;-82
2023/07/01 07:02:41;;;;;;;2.67;2.22;;;;;;;15.26;87.53;100224.31;5053165;27;21278;-82
2023/07/01 07:05:08;;;;;;;2.85;2.65;;;;;;;15.20;87.97;100239.66;5056904;27;20432;-81
2023/07/01 07:07:33;;;;;;;4.18;2.50;;;;;;;15.26;88.47;100238.69;5048382;28;20097;-79
2023/07/01 07:09:59;;;;;;;4.80;2.60;;;;;;;15.33;87.69;100235.03;5048068;28;20021;-80
2023/07/01 07:12:25;;;;;;;3.10;2.47;;;;;;;15.24;87.93;100232.69;5045637;28;20105;-82
2023/07/01 07:14:50;;;;;;;3.22;2.58;;;;;;;15.34;87.80;100223.09;5053565;28;20375;-82
2023/07/01 07:17:15;;;;;;;2.92;2.72;;;;;;;15.40;87.32;100235.66;5055479;28;20104;-83
2023/07/01 07:19:44;;;;;;;3.13;2.75;;;;;;;15.42;87.40;100225.41;5046652;27;20449;-80
2023/07/01 07:22:09;;;;;;;3.05;2.85;;;;;;;15.43;87.53;100230.59;5047093;28;20025;-80
2023/07/01 07:24:35;;;;;;;3.08;2.60;;;;;;;15.47;87.59;100225.50;5047172;28;20036;-80
2023/07/01 07:27:01;;;;;;;2.75;2.50;;;;;;;15.48;87.52;100229.03;5046584;28;20029;-79
2023/07/01 07:29:30;;;;;;;2.83;2.63;;;;;;;15.36;87.56;100215.53;5046649;28;20035;-79
2023/07/01 07:31:56;;;;;;;2.92;2.63;;;;;;;15.48;87.53;100219.00;5047205;27;20036;-79
2023/07/01 07:34:22;;;;;;;2.80;2.60;;;;;;;15.53;87.21;100227.22;5048376;28;20365;-80
2023/07/01 07:36:47;;;;;;;2.67;2.47;;;;;;;15.61;86.93;100223.28;5045647;28;20169;-80
2023/07/01 07:39:13;;;;;;;2.63;2.30;;;;;;;15.68;86.84;100225.84;5047120;28;20025;-79
2023/07/01 07:41:41;;;;;;;2.95;2.22;;;;;;;15.69;86.35;100216.63;5056192;28;20024;-79
2023/07/01 07:44:07;;;;;;;2.63;2.30;;;;;;;15.77;86.16;100205.34;5052465;28;20504;-81
2023/07/01 07:46:33;;;;;;;2.70;2.50;;;;;;;15.81;85.82;100222.78;5046212;28;20048;-79
2023/07/01 07:48:58;;;;;;;2.35;2.20;;;;;;;15.91;86.00;100219.44;5048136;28;20379;-81
2023/07/01 07:51:24;;;;;;;2.47;2.17;;;;;;;15.92;85.41;100218.38;5042428;28;20039;-79
2023/07/01 07:53:49;;;;;;;2.65;2.00;;;;;;;15.95;85.32;100220.59;5042973;28;20046;-79
2023/07/01 07:56:14;;;;;;;2.95;2.20;;;;;;;15.88;85.69;100200.94;5048287;28;20032;-79
2023/07/01 07:58:40;;;;;;;2.30;2.10;;;;;;;15.84;86.31;100214.16;5048050;27;20112;-81
2023/07/01 08:01:05;;;;;;;2.35;2.15;;;;;;;15.75;87.22;100210.19;5044518;27;20025;-80
2023/07/01 08:03:31;;;;;;;2.75;2.40;;;;;;;15.80;87.00;100213.00;5046214;27;20025;-80
2023/07/01 08:05:56;;;;;;;2.13;2.03;;;;;;;15.85;86.48;100209.53;5044809;28;20032;-80
2023/07/01 08:08:21;;;;;;;2.20;2.00;;;;;;;15.84;86.71;100208.72;5029917;27;20072;-81
2023/07/01 08:10:47;;;;;;;2.10;1.90;;;;;;;15.87;86.13;100202.84;5047149;28;20078;-81
2023/07/01 08:13:13;;;;;;;2.10;1.90;;;;;;;16.01;86.04;100210.63;5053217;27;20024;-81
2023/07/01 08:15:38;;;;;;;2.13;2.03;;;;;;;16.07;85.45;100201.47;5047953;27;20440;-80
2023/07/01 08:18:04;;;;;;;2.42;2.00;;;;;;;16.11;85.12;100207.25;5048582;27;20483;-79
2023/07/01 08:20:29;;;;;;;2.05;1.90;;;;;;;16.25;84.42;100207.69;5049247;27;20021;-79
2023/07/01 08:22:55;;;;;;;1.73;1.63;;;;;;;16.24;84.51;100203.34;5046660;28;20055;-77
2023/07/01 08:25:20;;;;;;;2.28;2.08;;;;;;;16.23;84.32;100202.53;5047525;27;20032;-78
2023/07/01 08:27:45;;;;;;;1.90;1.80;;;;;;;16.29;84.61;100206.13;5044509;28;20051;-78
2023/07/01 08:30:12;;;;;;;1.80;1.70;;;;;;;16.28;84.78;100199.03;5046866;28;20411;-76
2023/07/01 08:32:38;;;;;;;1.90;1.80;;;;;;;16.22;84.95;100200.88;5046234;28;20414;-76
2023/07/01 08:35:04;;;;;;;2.10;1.90;;;;;;;16.28;84.96;100204.47;5050408;28;20076;-76
2023/07/01 08:37:30;;;;;;;2.03;1.92;;;;;;;16.30;84.74;100202.34;5066776;27;20479;-77
2023/07/01 08:39:55;;;;;;;2.35;2.10;;;;;;;16.27;84.94;100202.84;5067331;27;20189;-76
2023/07/01 08:42:22;;;;;;;2.35;2.15;;;;;;;16.15;85.36;100198.34;5049750;28;20036;-77
2023/07/01 08:44:48;;;;;;;2.20;2.10;;;;;;;16.23;85.43;100193.56;5044983;28;20054;-77
2023/07/01 08:47:13;;;;;;;2.30;2.10;;;;;;;16.27;85.39;100208.25;5026527;28;20037;-77
2023/07/01 08:49:39;;;;;;;2.30;2.13;;;;;;;16.16;85.80;100197.28;4999340;28;20033;-78
2023/07/01 08:52:07;;;;;;;2.22;2.08;;;;;;;16.12;85.99;100196.13;4998991;28;20093;-77
2023/07/01 08:54:33;;;;;;;2.28;2.10;;;;;;;16.23;86.45;100204.44;5026160;28;20448;-76
2023/07/01 08:56:59;;;;;;;2.13;2.03;;;;;;;16.30;86.26;100191.47;5008786;28;20030;-79
2023/07/01 08:59:25;;;;;;;2.70;2.50;;;;;;;16.28;85.82;100194.44;5007568;28;20020;-78
2023/07/01 09:01:50;;;;;;;3.30;2.38;;;;;;;16.23;86.60;100199.00;4993379;28;20026;-77
2023/07/01 09:04:15;;;;;;;3.03;2.10;;;;;;;16.08;87.88;100192.25;5021251;28;20404;-77
2023/07/01 09:06:41;;;;;;;2.65;2.45;;;;;;;16.01;88.09;100188.91;5058423;28;20053;-78
2023/07/01 09:09:06;;;;;;;2.72;2.53;;;;;;;16.18;86.82;100189.69;5025867;28;20022;-78
2023/07/01 09:11:32;;;;;;;2.75;2.55;;;;;;;16.06;87.89;100192.53;5026291;28;20025;-78
2023/07/01 09:13:57;;;;;;;2.70;2.25;;;;;;;16.24;87.30;100168.06;5024110;28;20026;-78
2023/07/01 09:16:33;;;;;;;2.63;2.40;;;;;;;16.31;87.00;100184.97;5024844;28;20025;-78
2023/07/01 09:19:05;;;;;;;2.83;2.47;;;;;;;16.25;87.88;100189.50;5019401;28;20025;-79
2023/07/01 09:21:32;;;;;;;2.95;2.72;;;;;;;16.44;87.47;100192.72;5029757;28;20029;-78
2023/07/01 09:24:00;;;;;;;3.03;2.58;;;;;;;16.45;87.22;100188.94;5028136;28;20403;-78
2023/07/01 09:26:27;;;;;;;2.75;2.55;;;;;;;16.57;87.53;100186.09;5029947;28;20220;-78
2023/07/01 09:28:54;;;;;;;2.95;2.60;;;;;;;16.62;87.21;100177.19;5029852;28;20026;-77
2023/07/01 09:31:19;;;;;;;3.15;2.80;;;;;;;16.77;86.66;100184.69;5026716;28;20098;-77
2023/07/01 09:34:05;;;;;;;3.00;2.80;;;;;;;16.81;87.08;100183.94;5029357;28;20037;-77
2023/07/01 09:36:31;;;;;;;2.70;2.50;;;;;;;16.86;86.89;100172.28;5028728;28;20166;-78
2023/07/01 09:38:56;;;;;;;2.88;2.67;;;;;;;16.80;86.97;100179.56;5029302;28;20484;-77
2023/07/01 09:41:26;;;;;;;2.97;2.78;;;;;;;16.88;86.96;100182.91;5030430;28;20476;-78
2023/07/01 09:43:52;;;;;;;2.70;2.50;;;;;;;16.91;86.83;100174.25;5030269;28;20021;-77
2023/07/01 09:46:18;;;;;;;2.90;2.70;;;;;;;16.84;86.35;100171.75;5042793;28;20033;-78
2023/07/01 09:48:53;;;;;;;3.33;3.03;;;;;;;16.68;87.25;100166.13;5043836;28;20068;-78
2023/07/01 09:51:19;;;;;;;3.00;2.80;;;;;;;16.83;87.17;100170.91;5039034;28;20029;-77
2023/07/01 09:53:45;;;;;;;3.20;2.90;;;;;;;16.91;86.31;100157.94;5044004;27;20090;-78
2023/07/01 09:56:11;;;;;;;3.10;2.90;;;;;;;16.99;86.22;100164.84;5042589;28;20029;-77
2023/07/01 09:58:36;;;;;;;3.20;3.00;;;;;;;17.13;86.25;100166.88;5065582;27;20041;-78
2023/07/01 10:01:01;;;;;;;3.40;3.10;;;;;;;17.24;85.44;100161.53;5014189;28;20026;-78
2023/07/01 10:03:27;;;;;;;3.50;3.20;;;;;;;17.25;86.01;100160.47;5041112;28;20029;-77
2023/07/01 10:05:52;;;;;;;3.30;3.10;;;;;;;17.32;85.30;100152.91;5046580;28;20021;-77
2023/07/01 10:08:18;;;;;;;3.35;3.15;;;;;;;17.22;84.83;100163.69;5048193;27;20116;-77
2023/07/01 10:10:43;;;;;;;3.50;3.20;;;;;;;17.24;85.51;100147.94;5046483;28;20025;-77
2023/07/01 10:13:09;;;;;;;4.10;3.70;;;;;;;17.18;85.69;100162.56;5047857;28;20403;-77
2023/07/01 10:15:34;;;;;;;4.00;3.60;;;;;;;17.08;86.93;100164.13;5011651;27;20097;-77
2023/07/01 10:17:59;;;;;;;4.10;3.80;;;;;;;17.08;87.16;100161.41;5034859;27;20025;-76
2023/07/01 10:20:32;;;;;;;4.68;4.35;;;;;;;17.07;88.73;100154.31;5040396;28;20051;-77
2023/07/01 10:22:59;;;;;;;4.93;4.43;;;;;;;16.99;88.91;100160.22;5051021;27;20039;-75
2023/07/01 10:25:31;;;;;;;3.78;3.50;;;;;;;17.22;87.32;100152.81;5051365;27;20033;-77
2023/07/01 10:27:59;;;;;;;5.10;4.47;;;;;;;17.29;87.61;100153.44;5051827;28;20268;-77
2023/07/01 10:30:45;;;;;;;4.60;4.18;;;;;;;17.42;85.77;100147.56;5046586;28;20124;-78
2023/07/01 10:33:35;;;;;;;5.13;4.67;;;;;;;17.21;87.08;100162.06;5034498;28;20037;-77
2023/07/01 10:36:04;;;;;;;4.82;4.43;;;;;;;17.28;86.97;100149.88;5051110;27;20037;-77
2023/07/01 10:38:32;;;;;;;4.97;4.40;;;;;;;17.23;87.41;100158.00;5048766;28;20021;-77
2023/07/01 10:40:58;;;;;;;5.28;4.88;;;;;;;17.23;87.87;100149.81;5029684;28;20037;-77
2023/07/01 10:43:23;;;;;;;5.22;4.80;;;;;;;17.29;87.99;100153.44;5043619;28;20029;-76
2023/07/01 10:46:21;;;;;;;5.07;4.68;;;;;;;17.42;87.36;100154.88;5046566;28;20049;-76
2023/07/01 10:49:02;;;;;;;6.30;5.80;;;;;;;17.28;87.50;100149.06;5048954;28;20397;-77
2023/07/01 10:51:28;;;;;;;5.45;5.05;;;;;;;17.27;88.08;100144.72;5048668;28;20030;-77
2023/07/01 10:54:04;;;;;;;5.60;5.20;;;;;;;17.05;88.42;100148.31;5047899;28;20426;-76
2023/07/01 10:56:34;;;;;;;5.85;5.35;;;;;;;17.11;88.66;100138.31;5038005;28;20032;-76
2023/07/01 10:59:27;;;;;;;5.85;5.35;;;;;;;17.07;89.49;100143.44;5052636;28;20017;-75
2023/07/01 11:01:56;;;;;;;5.28;4.82;;;;;;;17.16;88.67;100140.25;5045805;28;20027;-76
2023/07/01 11:04:23;;;;;;;5.22;4.82;;;;;;;17.27;87.93;100142.00;5048152;28;20128;-76
2023/07/01 11:06:49;;;;;;;4.90;4.50;;;;;;;17.33;87.62;100135.50;5046480;28;20040;-76
2023/07/01 11:09:26;;;;;;;4.68;4.38;;;;;;;17.47;87.54;100135.06;5047229;28;20481;-76
2023/07/01 11:11:51;;;;;;;4.43;4.13;;;;;;;17.37;87.85;100142.06;5032111;28;20086;-76
2023/07/01 11:14:17;;;;;;;4.38;3.90;;;;;;;17.39;88.34;100141.78;5039218;27;20060;-78
2023/07/01 11:16:42;;;;;;;4.68;3.90;;;;;;;17.47;87.46;100140.50;5045009;27;20094;-77
2023/07/01 11:19:09;;;;;;;3.67;3.47;;;;;;;17.50;87.30;100137.25;5043789;28;20388;-76
2023/07/01 11:21:34;;;;;;;3.70;3.40;;;;;;;17.57;86.86;100132.41;5039496;28;20025;-78